sensor_id;sensor_type;location;lat;lon;timestamp;P1;durP1;ratioP1;P2;durP2;ratioP2
37305;SDS011;23193;42.656;21.170;2022-08-03T00:01:52;10.07;;;4.22;;
37305;SDS011;23193;42.656;21.170;2022-08-03T00:04:18;13.45;;;4.10;;
37305;SDS011;23193;42.656;21.170;2022-08-03T00:06:44;15.32;;;4.95;;
37305;SDS011;23193;42.656;21.170;2022-08-03T00:09:10;13.18;;;5.45;;
37305;SDS011;23193;42.656;21.170;2022-08-03T00:11:36;11.25;;;4.90;;
37305;SDS011;23193;42.656;21.170;2022-08-03T00:14:03;14.07;;;4.18;;
37305;SDS011;23193;42.656;21.170;2022-08-03T00:16:30;7.70;;;4.03;;
37305;SDS011;23193;42.656;21.170;2022-08-03T00:18:56;11.48;;;4.10;;
37305;SDS011;23193;42.656;21.170;2022-08-03T00:21:22;12.07;;;4.60;;
37305;SDS011;23193;42.656;21.170;2022-08-03T00:23:48;13.27;;;4.45;;
37305;SDS011;23193;42.656;21.170;2022-08-03T00:26:14;8.38;;;4.47;;
37305;SDS011;23193;42.656;21.170;2022-08-03T00:28:40;13.95;;;4.60;;
37305;SDS011;23193;42.656;21.170;2022-08-03T00:31:06;8.45;;;4.55;;
37305;SDS011;23193;42.656;21.170;2022-08-03T00:33:32;7.72;;;3.92;;
37305;SDS011;23193;42.656;21.170;2022-08-03T00:35:58;11.52;;;4.78;;
37305;SDS011;23193;42.656;21.170;2022-08-03T00:38:25;8.77;;;4.50;;
37305;SDS011;23193;42.656;21.170;2022-08-03T00:40:51;10.38;;;4.07;;
37305;SDS011;23193;42.656;21.170;2022-08-03T00:43:17;12.77;;;4.47;;
37305;SDS011;23193;42.656;21.170;2022-08-03T00:45:43;8.85;;;4.40;;
37305;SDS011;23193;42.656;21.170;2022-08-03T00:48:09;9.25;;;4.68;;
37305;SDS011;23193;42.656;21.170;2022-08-03T00:50:40;10.02;;;4.53;;
37305;SDS011;23193;42.656;21.170;2022-08-03T00:53:08;15.35;;;5.22;;
37305;SDS011;23193;42.656;21.170;2022-08-03T00:55:36;18.33;;;4.43;;
37305;SDS011;23193;42.656;21.170;2022-08-03T00:58:02;7.28;;;4.00;;
37305;SDS011;23193;42.656;21.170;2022-08-03T01:00:31;12.00;;;4.72;;
37305;SDS011;23193;42.656;21.170;2022-08-03T01:02:57;15.55;;;5.13;;
37305;SDS011;23193;42.656;21.170;2022-08-03T01:05:23;9.93;;;4.35;;
37305;SDS011;23193;42.656;21.170;2022-08-03T01:10:27;6.60;;;3.90;;
37305;SDS011;23193;42.656;21.170;2022-08-03T01:12:58;5.75;;;3.80;;
37305;SDS011;23193;42.656;21.170;2022-08-03T01:15:40;9.15;;;3.47;;
37305;SDS011;23193;42.656;21.170;2022-08-03T01:18:10;6.95;;;3.50;;
37305;SDS011;23193;42.656;21.170;2022-08-03T01:20:39;7.40;;;3.33;;
37305;SDS011;23193;42.656;21.170;2022-08-03T01:30:42;6.90;;;3.70;;
37305;SDS011;23193;42.656;21.170;2022-08-03T01:38:23;10.45;;;5.03;;
37305;SDS011;23193;42.656;21.170;2022-08-03T01:40:53;9.18;;;4.50;;
37305;SDS011;23193;42.656;21.170;2022-08-03T01:43:20;7.72;;;4.78;;
37305;SDS011;23193;42.656;21.170;2022-08-03T01:45:48;11.65;;;4.97;;
37305;SDS011;23193;42.656;21.170;2022-08-03T01:48:15;11.82;;;5.57;;
37305;SDS011;23193;42.656;21.170;2022-08-03T01:50:41;8.55;;;5.22;;
37305;SDS011;23193;42.656;21.170;2022-08-03T01:53:08;11.52;;;4.50;;
37305;SDS011;23193;42.656;21.170;2022-08-03T01:55:34;10.55;;;4.28;;
37305;SDS011;23193;42.656;21.170;2022-08-03T01:58:02;5.13;;;4.00;;
37305;SDS011;23193;42.656;21.170;2022-08-03T02:00:28;6.15;;;3.92;;
37305;SDS011;23193;42.656;21.170;2022-08-03T02:02:55;16.67;;;4.00;;
37305;SDS011;23193;42.656;21.170;2022-08-03T02:05:21;8.73;;;3.65;;
37305;SDS011;23193;42.656;21.170;2022-08-03T02:07:48;7.85;;;3.67;;
37305;SDS011;23193;42.656;21.170;2022-08-03T02:10:15;4.60;;;3.45;;
37305;SDS011;23193;42.656;21.170;2022-08-03T02:12:43;8.23;;;3.95;;
37305;SDS011;23193;42.656;21.170;2022-08-03T02:15:09;6.28;;;3.40;;
37305;SDS011;23193;42.656;21.170;2022-08-03T02:17:36;4.47;;;3.28;;
37305;SDS011;23193;42.656;21.170;2022-08-03T02:20:03;9.35;;;3.30;;
37305;SDS011;23193;42.656;21.170;2022-08-03T02:22:30;4.13;;;3.42;;
37305;SDS011;23193;42.656;21.170;2022-08-03T02:24:57;8.95;;;3.22;;
37305;SDS011;23193;42.656;21.170;2022-08-03T02:27:25;4.35;;;3.28;;
37305;SDS011;23193;42.656;21.170;2022-08-03T02:29:55;8.43;;;3.60;;
37305;SDS011;23193;42.656;21.170;2022-08-03T02:32:26;9.55;;;3.30;;
37305;SDS011;23193;42.656;21.170;2022-08-03T02:34:54;6.40;;;3.08;;
37305;SDS011;23193;42.656;21.170;2022-08-03T02:37:22;4.97;;;3.13;;
37305;SDS011;23193;42.656;21.170;2022-08-03T02:39:50;7.15;;;3.35;;
37305;SDS011;23193;42.656;21.170;2022-08-03T02:42:17;4.22;;;3.00;;
37305;SDS011;23193;42.656;21.170;2022-08-03T02:44:46;4.43;;;3.28;;
37305;SDS011;23193;42.656;21.170;2022-08-03T02:47:13;8.50;;;3.75;;
37305;SDS011;23193;42.656;21.170;2022-08-03T02:49:40;6.53;;;3.17;;
37305;SDS011;23193;42.656;21.170;2022-08-03T02:52:09;4.90;;;3.47;;
37305;SDS011;23193;42.656;21.170;2022-08-03T02:54:37;7.57;;;3.08;;
37305;SDS011;23193;42.656;21.170;2022-08-03T02:57:03;4.20;;;3.20;;
37305;SDS011;23193;42.656;21.170;2022-08-03T02:59:31;6.07;;;4.18;;
37305;SDS011;23193;42.656;21.170;2022-08-03T03:01:58;11.10;;;3.28;;
37305;SDS011;23193;42.656;21.170;2022-08-03T03:04:25;7.05;;;3.78;;
37305;SDS011;23193;42.656;21.170;2022-08-03T03:06:52;10.95;;;3.85;;
37305;SDS011;23193;42.656;21.170;2022-08-03T03:09:19;11.00;;;3.53;;
37305;SDS011;23193;42.656;21.170;2022-08-03T03:11:45;9.27;;;3.80;;
37305;SDS011;23193;42.656;21.170;2022-08-03T03:14:13;9.38;;;3.83;;
37305;SDS011;23193;42.656;21.170;2022-08-03T03:16:40;7.00;;;4.10;;
37305;SDS011;23193;42.656;21.170;2022-08-03T03:19:07;5.45;;;3.58;;
37305;SDS011;23193;42.656;21.170;2022-08-03T03:21:33;4.28;;;3.70;;
37305;SDS011;23193;42.656;21.170;2022-08-03T03:24:00;5.95;;;3.67;;
37305;SDS011;23193;42.656;21.170;2022-08-03T03:26:26;5.63;;;4.07;;
37305;SDS011;23193;42.656;21.170;2022-08-03T03:28:52;7.18;;;4.22;;
37305;SDS011;23193;42.656;21.170;2022-08-03T03:31:19;5.78;;;4.20;;
37305;SDS011;23193;42.656;21.170;2022-08-03T03:33:45;8.40;;;4.32;;
37305;SDS011;23193;42.656;21.170;2022-08-03T03:36:11;9.55;;;5.03;;
37305;SDS011;23193;42.656;21.170;2022-08-03T03:38:37;9.52;;;4.65;;
37305;SDS011;23193;42.656;21.170;2022-08-03T03:41:03;7.60;;;5.32;;
37305;SDS011;23193;42.656;21.170;2022-08-03T03:43:30;8.63;;;6.05;;
37305;SDS011;23193;42.656;21.170;2022-08-03T03:45:57;10.63;;;5.95;;
37305;SDS011;23193;42.656;21.170;2022-08-03T03:48:24;23.75;;;7.25;;
37305;SDS011;23193;42.656;21.170;2022-08-03T03:50:50;13.80;;;6.43;;
37305;SDS011;23193;42.656;21.170;2022-08-03T03:53:16;14.02;;;6.68;;
37305;SDS011;23193;42.656;21.170;2022-08-03T03:55:42;10.00;;;6.10;;
37305;SDS011;23193;42.656;21.170;2022-08-03T03:58:08;10.90;;;6.40;;
37305;SDS011;23193;42.656;21.170;2022-08-03T04:00:34;20.50;;;7.72;;
37305;SDS011;23193;42.656;21.170;2022-08-03T04:03:00;14.82;;;7.93;;
37305;SDS011;23193;42.656;21.170;2022-08-03T04:05:26;12.52;;;7.82;;
37305;SDS011;23193;42.656;21.170;2022-08-03T04:08:13;22.55;;;8.60;;
37305;SDS011;23193;42.656;21.170;2022-08-03T04:11:05;12.30;;;8.57;;
37305;SDS011;23193;42.656;21.170;2022-08-03T04:13:33;14.98;;;8.30;;
37305;SDS011;23193;42.656;21.170;2022-08-03T04:15:59;12.57;;;7.85;;
37305;SDS011;23193;42.656;21.170;2022-08-03T04:18:27;17.60;;;8.60;;
37305;SDS011;23193;42.656;21.170;2022-08-03T04:20:54;17.38;;;9.70;;
37305;SDS011;23193;42.656;21.170;2022-08-03T04:23:23;14.90;;;8.48;;
37305;SDS011;23193;42.656;21.170;2022-08-03T04:25:50;18.55;;;7.75;;
37305;SDS011;23193;42.656;21.170;2022-08-03T04:28:16;24.20;;;9.80;;
37305;SDS011;23193;42.656;21.170;2022-08-03T04:30:44;15.73;;;5.65;;
37305;SDS011;23193;42.656;21.170;2022-08-03T04:33:13;8.40;;;5.30;;
37305;SDS011;23193;42.656;21.170;2022-08-03T04:35:39;9.27;;;4.38;;
37305;SDS011;23193;42.656;21.170;2022-08-03T04:38:08;8.57;;;4.07;;
37305;SDS011;23193;42.656;21.170;2022-08-03T04:40:38;5.78;;;3.70;;
37305;SDS011;23193;42.656;21.170;2022-08-03T04:43:05;9.32;;;4.70;;
37305;SDS011;23193;42.656;21.170;2022-08-03T04:45:32;6.97;;;3.20;;
37305;SDS011;23193;42.656;21.170;2022-08-03T04:47:59;6.70;;;2.70;;
37305;SDS011;23193;42.656;21.170;2022-08-03T04:50:25;4.63;;;3.03;;
37305;SDS011;23193;42.656;21.170;2022-08-03T04:52:52;9.38;;;3.15;;
37305;SDS011;23193;42.656;21.170;2022-08-03T04:55:25;6.47;;;3.30;;
37305;SDS011;23193;42.656;21.170;2022-08-03T04:57:51;13.82;;;3.67;;
37305;SDS011;23193;42.656;21.170;2022-08-03T05:00:17;8.55;;;2.67;;
37305;SDS011;23193;42.656;21.170;2022-08-03T05:02:44;14.10;;;3.17;;
37305;SDS011;23193;42.656;21.170;2022-08-03T05:05:10;8.88;;;3.03;;
37305;SDS011;23193;42.656;21.170;2022-08-03T05:07:36;8.30;;;3.20;;
37305;SDS011;23193;42.656;21.170;2022-08-03T05:10:05;7.50;;;3.53;;
37305;SDS011;23193;42.656;21.170;2022-08-03T05:12:32;4.57;;;3.25;;
37305;SDS011;23193;42.656;21.170;2022-08-03T05:14:58;3.97;;;3.10;;
37305;SDS011;23193;42.656;21.170;2022-08-03T05:17:25;5.75;;;3.40;;
37305;SDS011;23193;42.656;21.170;2022-08-03T05:19:51;5.97;;;3.25;;
37305;SDS011;23193;42.656;21.170;2022-08-03T05:22:17;9.48;;;3.60;;
37305;SDS011;23193;42.656;21.170;2022-08-03T05:24:43;4.78;;;3.30;;
37305;SDS011;23193;42.656;21.170;2022-08-03T05:27:09;6.38;;;3.03;;
37305;SDS011;23193;42.656;21.170;2022-08-03T05:29:41;8.35;;;3.60;;
37305;SDS011;23193;42.656;21.170;2022-08-03T05:32:07;15.75;;;4.00;;
37305;SDS011;23193;42.656;21.170;2022-08-03T05:34:33;7.32;;;4.07;;
37305;SDS011;23193;42.656;21.170;2022-08-03T05:36:59;5.90;;;3.70;;
37305;SDS011;23193;42.656;21.170;2022-08-03T05:39:25;12.07;;;3.53;;
37305;SDS011;23193;42.656;21.170;2022-08-03T05:41:51;5.22;;;3.22;;
37305;SDS011;23193;42.656;21.170;2022-08-03T05:44:17;11.95;;;3.88;;
37305;SDS011;23193;42.656;21.170;2022-08-03T05:46:43;5.93;;;3.22;;
37305;SDS011;23193;42.656;21.170;2022-08-03T05:49:10;5.93;;;3.10;;
37305;SDS011;23193;42.656;21.170;2022-08-03T05:51:36;4.95;;;3.25;;
37305;SDS011;23193;42.656;21.170;2022-08-03T05:54:02;9.93;;;3.30;;
37305;SDS011;23193;42.656;21.170;2022-08-03T05:56:28;6.65;;;3.53;;
37305;SDS011;23193;42.656;21.170;2022-08-03T05:58:54;6.60;;;3.53;;
37305;SDS011;23193;42.656;21.170;2022-08-03T06:01:20;7.28;;;3.63;;
37305;SDS011;23193;42.656;21.170;2022-08-03T06:03:47;6.60;;;3.45;;
37305;SDS011;23193;42.656;21.170;2022-08-03T06:06:13;8.88;;;3.92;;
37305;SDS011;23193;42.656;21.170;2022-08-03T06:08:40;9.95;;;4.15;;
37305;SDS011;23193;42.656;21.170;2022-08-03T06:11:06;15.68;;;4.13;;
37305;SDS011;23193;42.656;21.170;2022-08-03T06:13:32;10.00;;;4.15;;
37305;SDS011;23193;42.656;21.170;2022-08-03T06:15:58;11.93;;;4.13;;
37305;SDS011;23193;42.656;21.170;2022-08-03T06:18:24;11.88;;;3.35;;
37305;SDS011;23193;42.656;21.170;2022-08-03T06:20:50;10.07;;;3.97;;
37305;SDS011;23193;42.656;21.170;2022-08-03T06:23:17;9.70;;;3.75;;
37305;SDS011;23193;42.656;21.170;2022-08-03T06:25:43;15.02;;;4.13;;
37305;SDS011;23193;42.656;21.170;2022-08-03T06:28:09;10.20;;;4.03;;
37305;SDS011;23193;42.656;21.170;2022-08-03T06:30:36;9.15;;;3.70;;
37305;SDS011;23193;42.656;21.170;2022-08-03T06:33:02;5.70;;;3.67;;
37305;SDS011;23193;42.656;21.170;2022-08-03T06:35:28;10.32;;;3.97;;
37305;SDS011;23193;42.656;21.170;2022-08-03T06:37:54;8.32;;;3.70;;
37305;SDS011;23193;42.656;21.170;2022-08-03T06:40:21;6.15;;;3.75;;
37305;SDS011;23193;42.656;21.170;2022-08-03T06:42:58;9.52;;;3.70;;
37305;SDS011;23193;42.656;21.170;2022-08-03T06:45:25;7.70;;;4.10;;
37305;SDS011;23193;42.656;21.170;2022-08-03T06:50:28;8.80;;;3.55;;
37305;SDS011;23193;42.656;21.170;2022-08-03T06:52:54;8.02;;;3.70;;
37305;SDS011;23193;42.656;21.170;2022-08-03T06:55:20;7.53;;;3.45;;
37305;SDS011;23193;42.656;21.170;2022-08-03T06:57:46;7.55;;;3.00;;
37305;SDS011;23193;42.656;21.170;2022-08-03T07:00:12;9.05;;;3.88;;
37305;SDS011;23193;42.656;21.170;2022-08-03T07:02:39;9.23;;;4.50;;
37305;SDS011;23193;42.656;21.170;2022-08-03T07:05:05;12.82;;;3.40;;
37305;SDS011;23193;42.656;21.170;2022-08-03T07:07:32;6.35;;;3.30;;
37305;SDS011;23193;42.656;21.170;2022-08-03T07:09:58;6.78;;;3.33;;
37305;SDS011;23193;42.656;21.170;2022-08-03T07:12:27;11.40;;;3.67;;
37305;SDS011;23193;42.656;21.170;2022-08-03T07:14:54;9.57;;;3.75;;
37305;SDS011;23193;42.656;21.170;2022-08-03T07:17:20;13.27;;;3.55;;
37305;SDS011;23193;42.656;21.170;2022-08-03T07:19:47;8.55;;;3.08;;
37305;SDS011;23193;42.656;21.170;2022-08-03T07:22:13;14.10;;;3.53;;
37305;SDS011;23193;42.656;21.170;2022-08-03T07:24:39;4.47;;;2.40;;
37305;SDS011;23193;42.656;21.170;2022-08-03T07:27:06;7.13;;;3.08;;
37305;SDS011;23193;42.656;21.170;2022-08-03T07:29:33;18.90;;;4.38;;
37305;SDS011;23193;42.656;21.170;2022-08-03T07:31:59;7.38;;;2.38;;
37305;SDS011;23193;42.656;21.170;2022-08-03T07:34:25;9.70;;;2.70;;
37305;SDS011;23193;42.656;21.170;2022-08-03T07:36:52;4.72;;;2.25;;
37305;SDS011;23193;42.656;21.170;2022-08-03T07:39:18;4.78;;;2.17;;
37305;SDS011;23193;42.656;21.170;2022-08-03T07:41:44;6.47;;;2.47;;
37305;SDS011;23193;42.656;21.170;2022-08-03T07:44:10;7.60;;;2.45;;
37305;SDS011;23193;42.656;21.170;2022-08-03T07:46:37;4.40;;;2.10;;
37305;SDS011;23193;42.656;21.170;2022-08-03T07:49:03;9.35;;;2.30;;
37305;SDS011;23193;42.656;21.170;2022-08-03T07:51:29;6.55;;;2.50;;
37305;SDS011;23193;42.656;21.170;2022-08-03T07:53:55;4.53;;;2.10;;
37305;SDS011;23193;42.656;21.170;2022-08-03T07:56:22;5.25;;;2.47;;
37305;SDS011;23193;42.656;21.170;2022-08-03T07:58:49;3.75;;;2.05;;
37305;SDS011;23193;42.656;21.170;2022-08-03T08:01:15;7.78;;;2.28;;
37305;SDS011;23193;42.656;21.170;2022-08-03T08:03:43;6.03;;;2.10;;
37305;SDS011;23193;42.656;21.170;2022-08-03T08:06:09;3.72;;;2.38;;
37305;SDS011;23193;42.656;21.170;2022-08-03T08:08:36;5.55;;;2.50;;
37305;SDS011;23193;42.656;21.170;2022-08-03T08:11:03;2.15;;;1.60;;
37305;SDS011;23193;42.656;21.170;2022-08-03T08:13:29;3.10;;;2.13;;
37305;SDS011;23193;42.656;21.170;2022-08-03T08:15:55;9.57;;;2.20;;
37305;SDS011;23193;42.656;21.170;2022-08-03T08:18:21;5.18;;;1.92;;
37305;SDS011;23193;42.656;21.170;2022-08-03T08:20:48;6.70;;;2.00;;
37305;SDS011;23193;42.656;21.170;2022-08-03T08:23:15;4.53;;;2.20;;
37305;SDS011;23193;42.656;21.170;2022-08-03T08:25:47;3.22;;;1.80;;
37305;SDS011;23193;42.656;21.170;2022-08-03T08:28:13;9.50;;;2.08;;
37305;SDS011;23193;42.656;21.170;2022-08-03T08:30:41;5.20;;;2.08;;
37305;SDS011;23193;42.656;21.170;2022-08-03T08:33:07;2.78;;;1.83;;
37305;SDS011;23193;42.656;21.170;2022-08-03T08:35:33;5.20;;;2.03;;
37305;SDS011;23193;42.656;21.170;2022-08-03T08:38:00;4.20;;;1.98;;
37305;SDS011;23193;42.656;21.170;2022-08-03T08:40:26;4.15;;;2.30;;
37305;SDS011;23193;42.656;21.170;2022-08-03T08:42:52;7.28;;;2.60;;
37305;SDS011;23193;42.656;21.170;2022-08-03T08:45:19;7.53;;;2.15;;
37305;SDS011;23193;42.656;21.170;2022-08-03T08:47:46;2.65;;;1.70;;
37305;SDS011;23193;42.656;21.170;2022-08-03T08:50:12;4.25;;;2.10;;
37305;SDS011;23193;42.656;21.170;2022-08-03T08:52:39;5.20;;;2.60;;
37305;SDS011;23193;42.656;21.170;2022-08-03T08:55:08;4.38;;;2.03;;
37305;SDS011;23193;42.656;21.170;2022-08-03T08:57:35;3.75;;;2.00;;
37305;SDS011;23193;42.656;21.170;2022-08-03T09:00:04;2.88;;;1.80;;
37305;SDS011;23193;42.656;21.170;2022-08-03T09:02:30;7.95;;;2.60;;
37305;SDS011;23193;42.656;21.170;2022-08-03T09:04:57;2.85;;;1.92;;
37305;SDS011;23193;42.656;21.170;2022-08-03T09:07:23;4.50;;;1.88;;
37305;SDS011;23193;42.656;21.170;2022-08-03T09:09:49;4.53;;;1.65;;
37305;SDS011;23193;42.656;21.170;2022-08-03T09:12:15;3.08;;;1.95;;
37305;SDS011;23193;42.656;21.170;2022-08-03T09:14:43;2.17;;;1.77;;
37305;SDS011;23193;42.656;21.170;2022-08-03T09:17:17;2.40;;;1.92;;
37305;SDS011;23193;42.656;21.170;2022-08-03T09:19:43;5.68;;;1.98;;
37305;SDS011;23193;42.656;21.170;2022-08-03T09:22:28;19.52;;;3.60;;
37305;SDS011;23193;42.656;21.170;2022-08-03T09:25:06;4.55;;;1.83;;
37305;SDS011;23193;42.656;21.170;2022-08-03T09:27:45;42.03;;;4.00;;
37305;SDS011;23193;42.656;21.170;2022-08-03T09:30:15;6.28;;;1.90;;
37305;SDS011;23193;42.656;21.170;2022-08-03T09:32:41;2.88;;;1.63;;
37305;SDS011;23193;42.656;21.170;2022-08-03T09:35:09;3.25;;;1.70;;
37305;SDS011;23193;42.656;21.170;2022-08-03T09:37:38;1.75;;;1.60;;
37305;SDS011;23193;42.656;21.170;2022-08-03T09:40:04;3.83;;;1.90;;
37305;SDS011;23193;42.656;21.170;2022-08-03T09:42:31;13.05;;;5.93;;
37305;SDS011;23193;42.656;21.170;2022-08-03T09:45:02;6.95;;;1.60;;
37305;SDS011;23193;42.656;21.170;2022-08-03T09:47:30;53.55;;;4.95;;
37305;SDS011;23193;42.656;21.170;2022-08-03T09:50:00;3.60;;;1.75;;
37305;SDS011;23193;42.656;21.170;2022-08-03T09:52:30;6.55;;;2.08;;
37305;SDS011;23193;42.656;21.170;2022-08-03T09:54:57;3.72;;;1.73;;
37305;SDS011;23193;42.656;21.170;2022-08-03T09:57:25;4.22;;;2.80;;
37305;SDS011;23193;42.656;21.170;2022-08-03T09:59:51;3.83;;;1.65;;
37305;SDS011;23193;42.656;21.170;2022-08-03T10:04:48;4.95;;;1.80;;
37305;SDS011;23193;42.656;21.170;2022-08-03T10:07:16;6.07;;;1.90;;
37305;SDS011;23193;42.656;21.170;2022-08-03T10:09:58;4.38;;;1.70;;
37305;SDS011;23193;42.656;21.170;2022-08-03T10:12:25;2.80;;;1.73;;
37305;SDS011;23193;42.656;21.170;2022-08-03T10:14:52;7.43;;;1.90;;
37305;SDS011;23193;42.656;21.170;2022-08-03T10:17:18;7.45;;;1.90;;
37305;SDS011;23193;42.656;21.170;2022-08-03T10:19:45;3.90;;;1.73;;
37305;SDS011;23193;42.656;21.170;2022-08-03T10:24:49;3.45;;;2.13;;
37305;SDS011;23193;42.656;21.170;2022-08-03T10:27:18;13.85;;;2.67;;
37305;SDS011;23193;42.656;21.170;2022-08-03T10:29:46;3.20;;;1.80;;
37305;SDS011;23193;42.656;21.170;2022-08-03T10:32:20;1.75;;;1.23;;
37305;SDS011;23193;42.656;21.170;2022-08-03T10:34:47;3.47;;;1.45;;
37305;SDS011;23193;42.656;21.170;2022-08-03T10:37:16;4.60;;;1.30;;
37305;SDS011;23193;42.656;21.170;2022-08-03T10:39:43;1.77;;;1.42;;
37305;SDS011;23193;42.656;21.170;2022-08-03T10:42:25;2.00;;;1.48;;
37305;SDS011;23193;42.656;21.170;2022-08-03T10:47:30;3.17;;;1.60;;
37305;SDS011;23193;42.656;21.170;2022-08-03T10:49:56;4.90;;;1.90;;
37305;SDS011;23193;42.656;21.170;2022-08-03T10:52:23;4.35;;;1.42;;
37305;SDS011;23193;42.656;21.170;2022-08-03T10:54:52;4.30;;;1.60;;
37305;SDS011;23193;42.656;21.170;2022-08-03T10:57:44;1.52;;;1.23;;
37305;SDS011;23193;42.656;21.170;2022-08-03T11:00:28;2.65;;;1.27;;
37305;SDS011;23193;42.656;21.170;2022-08-03T11:03:00;3.10;;;1.90;;
37305;SDS011;23193;42.656;21.170;2022-08-03T11:05:27;3.17;;;1.58;;
37305;SDS011;23193;42.656;21.170;2022-08-03T11:10:39;4.10;;;1.20;;
37305;SDS011;23193;42.656;21.170;2022-08-03T11:13:08;3.72;;;1.60;;
37305;SDS011;23193;42.656;21.170;2022-08-03T11:15:35;3.15;;;1.20;;
37305;SDS011;23193;42.656;21.170;2022-08-03T11:18:08;3.50;;;1.60;;
37305;SDS011;23193;42.656;21.170;2022-08-03T11:20:44;1.98;;;1.60;;
37305;SDS011;23193;42.656;21.170;2022-08-03T11:23:10;9.80;;;1.77;;
37305;SDS011;23193;42.656;21.170;2022-08-03T11:28:26;1.92;;;1.48;;
37305;SDS011;23193;42.656;21.170;2022-08-03T11:30:52;3.22;;;1.50;;
37305;SDS011;23193;42.656;21.170;2022-08-03T11:33:28;6.57;;;2.25;;
37305;SDS011;23193;42.656;21.170;2022-08-03T11:35:58;3.65;;;1.73;;
37305;SDS011;23193;42.656;21.170;2022-08-03T11:38:24;5.93;;;1.70;;
37305;SDS011;23193;42.656;21.170;2022-08-03T11:40:51;1.88;;;1.60;;
37305;SDS011;23193;42.656;21.170;2022-08-03T11:46:06;2.97;;;1.20;;
37305;SDS011;23193;42.656;21.170;2022-08-03T11:51:00;3.90;;;2.55;;
37305;SDS011;23193;42.656;21.170;2022-08-03T11:53:26;4.95;;;1.98;;
37305;SDS011;23193;42.656;21.170;2022-08-03T11:55:52;2.50;;;1.67;;
37305;SDS011;23193;42.656;21.170;2022-08-03T11:58:19;2.15;;;1.30;;
37305;SDS011;23193;42.656;21.170;2022-08-03T12:00:46;5.22;;;1.73;;
37305;SDS011;23193;42.656;21.170;2022-08-03T12:03:14;27.02;;;2.35;;
37305;SDS011;23193;42.656;21.170;2022-08-03T12:05:42;17.42;;;2.40;;
37305;SDS011;23193;42.656;21.170;2022-08-03T12:08:13;7.57;;;1.90;;
37305;SDS011;23193;42.656;21.170;2022-08-03T12:10:40;2.92;;;1.67;;
37305;SDS011;23193;42.656;21.170;2022-08-03T12:15:36;4.03;;;2.00;;
37305;SDS011;23193;42.656;21.170;2022-08-03T12:18:03;3.60;;;1.63;;
37305;SDS011;23193;42.656;21.170;2022-08-03T12:20:37;4.72;;;1.73;;
37305;SDS011;23193;42.656;21.170;2022-08-03T12:23:03;3.95;;;1.80;;
37305;SDS011;23193;42.656;21.170;2022-08-03T12:25:29;11.23;;;2.30;;
37305;SDS011;23193;42.656;21.170;2022-08-03T12:28:05;7.43;;;2.28;;
37305;SDS011;23193;42.656;21.170;2022-08-03T12:30:31;3.70;;;2.30;;
37305;SDS011;23193;42.656;21.170;2022-08-03T12:32:57;12.30;;;2.25;;
37305;SDS011;23193;42.656;21.170;2022-08-03T12:35:23;3.78;;;1.98;;
37305;SDS011;23193;42.656;21.170;2022-08-03T12:37:50;5.30;;;2.45;;
37305;SDS011;23193;42.656;21.170;2022-08-03T12:40:25;6.68;;;2.88;;
37305;SDS011;23193;42.656;21.170;2022-08-03T12:42:51;18.05;;;2.47;;
37305;SDS011;23193;42.656;21.170;2022-08-03T12:45:21;2.70;;;1.40;;
37305;SDS011;23193;42.656;21.170;2022-08-03T12:47:48;3.97;;;2.07;;
37305;SDS011;23193;42.656;21.170;2022-08-03T12:50:34;5.93;;;1.60;;
37305;SDS011;23193;42.656;21.170;2022-08-03T12:53:01;6.35;;;1.85;;
37305;SDS011;23193;42.656;21.170;2022-08-03T12:55:28;4.93;;;1.52;;
37305;SDS011;23193;42.656;21.170;2022-08-03T12:58:27;26.52;;;2.95;;
37305;SDS011;23193;42.656;21.170;2022-08-03T13:00:55;14.90;;;2.13;;
37305;SDS011;23193;42.656;21.170;2022-08-03T13:03:22;2.83;;;1.45;;
37305;SDS011;23193;42.656;21.170;2022-08-03T13:05:48;5.18;;;1.80;;
37305;SDS011;23193;42.656;21.170;2022-08-03T13:08:21;5.03;;;1.73;;
37305;SDS011;23193;42.656;21.170;2022-08-03T13:10:47;4.13;;;2.05;;
37305;SDS011;23193;42.656;21.170;2022-08-03T13:13:13;5.15;;;1.88;;
37305;SDS011;23193;42.656;21.170;2022-08-03T13:15:39;3.03;;;1.48;;
37305;SDS011;23193;42.656;21.170;2022-08-03T13:18:05;1.50;;;1.20;;
37305;SDS011;23193;42.656;21.170;2022-08-03T13:20:32;2.92;;;1.67;;
37305;SDS011;23193;42.656;21.170;2022-08-03T13:22:58;3.83;;;1.40;;
37305;SDS011;23193;42.656;21.170;2022-08-03T13:25:24;6.72;;;1.73;;
37305;SDS011;23193;42.656;21.170;2022-08-03T13:27:50;4.88;;;1.60;;
37305;SDS011;23193;42.656;21.170;2022-08-03T13:30:17;5.55;;;1.48;;
37305;SDS011;23193;42.656;21.170;2022-08-03T13:32:43;1.70;;;1.17;;
37305;SDS011;23193;42.656;21.170;2022-08-03T13:35:09;5.43;;;1.70;;
37305;SDS011;23193;42.656;21.170;2022-08-03T13:37:36;14.30;;;1.90;;
37305;SDS011;23193;42.656;21.170;2022-08-03T13:40:03;1.70;;;1.40;;
37305;SDS011;23193;42.656;21.170;2022-08-03T13:42:30;1.73;;;1.48;;
37305;SDS011;23193;42.656;21.170;2022-08-03T13:44:56;3.47;;;1.48;;
37305;SDS011;23193;42.656;21.170;2022-08-03T13:47:22;5.00;;;1.10;;
37305;SDS011;23193;42.656;21.170;2022-08-03T13:49:48;1.30;;;0.85;;
37305;SDS011;23193;42.656;21.170;2022-08-03T13:52:16;1.23;;;1.13;;
37305;SDS011;23193;42.656;21.170;2022-08-03T13:54:42;2.00;;;1.02;;
37305;SDS011;23193;42.656;21.170;2022-08-03T13:57:08;3.42;;;1.20;;
37305;SDS011;23193;42.656;21.170;2022-08-03T13:59:35;2.70;;;1.35;;
37305;SDS011;23193;42.656;21.170;2022-08-03T14:02:01;2.47;;;1.35;;
37305;SDS011;23193;42.656;21.170;2022-08-03T14:04:28;14.23;;;1.58;;
37305;SDS011;23193;42.656;21.170;2022-08-03T14:06:54;1.90;;;1.50;;
37305;SDS011;23193;42.656;21.170;2022-08-03T14:09:20;2.67;;;1.50;;
37305;SDS011;23193;42.656;21.170;2022-08-03T14:11:46;2.28;;;1.33;;
37305;SDS011;23193;42.656;21.170;2022-08-03T14:14:13;2.50;;;1.38;;
37305;SDS011;23193;42.656;21.170;2022-08-03T14:16:39;13.18;;;1.75;;
37305;SDS011;23193;42.656;21.170;2022-08-03T14:19:05;5.05;;;1.20;;
37305;SDS011;23193;42.656;21.170;2022-08-03T14:21:31;6.03;;;1.70;;
37305;SDS011;23193;42.656;21.170;2022-08-03T14:23:57;3.28;;;1.27;;
37305;SDS011;23193;42.656;21.170;2022-08-03T14:26:24;13.80;;;1.95;;
37305;SDS011;23193;42.656;21.170;2022-08-03T14:28:50;2.15;;;1.30;;
37305;SDS011;23193;42.656;21.170;2022-08-03T14:31:16;1.20;;;0.90;;
37305;SDS011;23193;42.656;21.170;2022-08-03T14:33:42;2.53;;;1.40;;
37305;SDS011;23193;42.656;21.170;2022-08-03T14:36:08;1.60;;;1.20;;
37305;SDS011;23193;42.656;21.170;2022-08-03T14:38:34;5.47;;;1.40;;
37305;SDS011;23193;42.656;21.170;2022-08-03T14:41:00;7.13;;;2.45;;
37305;SDS011;23193;42.656;21.170;2022-08-03T14:43:26;9.63;;;1.95;;
37305;SDS011;23193;42.656;21.170;2022-08-03T14:45:52;8.50;;;1.85;;
37305;SDS011;23193;42.656;21.170;2022-08-03T14:48:19;2.10;;;1.20;;
37305;SDS011;23193;42.656;21.170;2022-08-03T14:50:45;8.25;;;1.77;;
37305;SDS011;23193;42.656;21.170;2022-08-03T14:53:11;4.22;;;1.35;;
37305;SDS011;23193;42.656;21.170;2022-08-03T14:55:37;3.08;;;1.25;;
37305;SDS011;23193;42.656;21.170;2022-08-03T14:58:04;2.90;;;1.58;;
37305;SDS011;23193;42.656;21.170;2022-08-03T15:00:34;3.67;;;1.40;;
37305;SDS011;23193;42.656;21.170;2022-08-03T15:03:03;2.35;;;1.20;;
37305;SDS011;23193;42.656;21.170;2022-08-03T15:05:29;11.40;;;1.58;;
37305;SDS011;23193;42.656;21.170;2022-08-03T15:07:55;2.70;;;1.48;;
37305;SDS011;23193;42.656;21.170;2022-08-03T15:10:21;1.90;;;1.30;;
37305;SDS011;23193;42.656;21.170;2022-08-03T15:12:47;1.80;;;1.20;;